Longboat Key, FL

7:01 AM EST on December 20, 2014 (GMT -0500)
KFLSARAS37 | Change Station
CLOSE
Current Station
Personal Weather Station
Location: Sarasota, FL
Elevation: 3 ft
Nearby Weather Stations

Elev 3 ft 27.33 °N, 82.58 °W | Updated 47 seconds ago

Partly Cloudy
Partly Cloudy
57.8 °F
Feels Like 57.8 °F
N
7.0
Wind Variable Wind from ENE
Gusts 7.0 mph

Today
High -- | Low -- °F
--% Chance of Precip.
Yesterday
High -- | Low -- °F
Precip. -- in
7:15 AM 5:40 PM
Waning Crescent, 3% visible
Pressure 30.06 in
Visibility 10.0 miles
Clouds Clear
Dew Point 56 °F
Humidity 92%
Rainfall 0.00 in
Snow Depth Not available.
UV 0.0 out of 12
Pollen 5.60 out of 12
Air Quality Not available.
Flu Activity Not available.
METAR KSRQ 201153Z 09004KT 10SM CLR 13/12 A3006 RMK AO2 SLP179 T01280122 10133 20111 53008 $

More Conditions Fewer Conditions

Pressure 30.06 in
Visibility 10.0 miles
Clouds Clear
Dew Point 56 °F
Humidity 92%
Rainfall 0.00 in
Snow Depth Not available.
UV 0.0 out of 12
Pollen 5.60 out of 12
Air Quality Not available.
Flu Activity Not available.
METAR KSRQ 201153Z 09004KT 10SM CLR 13/12 A3006 RMK AO2 SLP179 T01280122 10133 20111 53008 $

More Conditions Fewer Conditions

10-Day Weather Forecast

Almanac

Astronomy

Dec. 20, 2014 Rise Set
Actual Time
Civil Twilight
Nautical Twilight
Astronomical Twilight
Moon
Length of Visible Light
Length of Day
Tomorrow will be .
, % of the Moon is Illuminated

Today's Extremes

State Highs State Lows

Community

WunderPhotos

Upload Photos

1,779,162 photos uploaded!

WunderBlogs® & News

Nearby

Air Quality

  Air Quality AQ Index Pollutant
Not available.

Snow Depth

Station Depth Elevation

Earthquake Activity

City Distance Mag. Time & Date
Minimum magnitude displayed is 2.5.

Coastal Water Temperatures

Place Temperature

Nearby Weather Stations